Terminal Aerodrome Forecast
Issued by NWS

Home | Current Version | Previous Version | Text Only | Print | Product List | Glossary Off
Versions: 1 2 3 4 5 6 7 8 9 10 11 12 13 14 15 16 17 18

000
FTUS43 KABR 280500
TAFATY
TAF
KATY 280533Z 2806/2906 36010KT P6SM FEW050 SCT090 SCT120
      TEMPO 2806/2809 35020G28KT
     FM281200 35010KT P6SM VCSH BKN020 OVC040
     FM281500 36012KT P6SM FEW030=

USA.gov is the U.S. government's official web portal to all federal, state and local government web resources and services.